sensor_id;sensor_type;location;lat;lon;timestamp;temperature;humidity
49489;SHT31;35382;51.484;11.476;2023-05-07T00:01:32;9.79;86.53
49489;SHT31;35382;51.484;11.476;2023-05-07T00:03:13;9.86;85.99
49489;SHT31;35382;51.484;11.476;2023-05-07T00:04:54;9.96;85.92
49489;SHT31;35382;51.484;11.476;2023-05-07T00:06:36;9.90;85.98
49489;SHT31;35382;51.484;11.476;2023-05-07T00:08:17;9.83;85.90
49489;SHT31;35382;51.484;11.476;2023-05-07T00:09:57;9.82;86.14
49489;SHT31;35382;51.484;11.476;2023-05-07T00:11:38;9.77;86.12
49489;SHT31;35382;51.484;11.476;2023-05-07T00:13:19;9.74;86.32
49489;SHT31;35382;51.484;11.476;2023-05-07T00:15:03;9.64;86.91
49489;SHT31;35382;51.484;11.476;2023-05-07T00:16:44;9.69;87.33
49489;SHT31;35382;51.484;11.476;2023-05-07T00:18:25;9.67;87.23
49489;SHT31;35382;51.484;11.476;2023-05-07T00:20:06;9.79;86.58
49489;SHT31;35382;51.484;11.476;2023-05-07T00:21:48;9.77;86.70
49489;SHT31;35382;51.484;11.476;2023-05-07T00:23:28;9.72;86.56
49489;SHT31;35382;51.484;11.476;2023-05-07T00:25:09;9.76;86.49
49489;SHT31;35382;51.484;11.476;2023-05-07T00:26:51;9.86;86.40
49489;SHT31;35382;51.484;11.476;2023-05-07T00:28:33;9.80;86.25
49489;SHT31;35382;51.484;11.476;2023-05-07T00:30:14;9.77;86.23
49489;SHT31;35382;51.484;11.476;2023-05-07T00:31:55;9.73;87.01
49489;SHT31;35382;51.484;11.476;2023-05-07T00:33:36;9.79;86.34
49489;SHT31;35382;51.484;11.476;2023-05-07T00:35:17;9.82;86.12
49489;SHT31;35382;51.484;11.476;2023-05-07T00:36:58;9.72;86.89
49489;SHT31;35382;51.484;11.476;2023-05-07T00:38:39;9.74;86.93
49489;SHT31;35382;51.484;11.476;2023-05-07T00:40:20;9.74;87.28
49489;SHT31;35382;51.484;11.476;2023-05-07T00:42:01;9.66;87.74
49489;SHT31;35382;51.484;11.476;2023-05-07T00:43:43;9.76;86.89
49489;SHT31;35382;51.484;11.476;2023-05-07T00:45:27;9.86;86.44
49489;SHT31;35382;51.484;11.476;2023-05-07T00:47:09;9.79;86.54
49489;SHT31;35382;51.484;11.476;2023-05-07T00:48:50;9.69;87.24
49489;SHT31;35382;51.484;11.476;2023-05-07T00:50:32;9.63;87.79
49489;SHT31;35382;51.484;11.476;2023-05-07T00:52:14;9.84;86.74
49489;SHT31;35382;51.484;11.476;2023-05-07T00:53:56;9.80;86.47
49489;SHT31;35382;51.484;11.476;2023-05-07T00:55:37;9.66;87.08
49489;SHT31;35382;51.484;11.476;2023-05-07T00:57:18;9.73;86.89
49489;SHT31;35382;51.484;11.476;2023-05-07T00:59:01;9.56;87.86
49489;SHT31;35382;51.484;11.476;2023-05-07T01:00:44;9.59;87.84
49489;SHT31;35382;51.484;11.476;2023-05-07T01:02:25;9.69;87.41
49489;SHT31;35382;51.484;11.476;2023-05-07T01:04:06;9.67;87.42
49489;SHT31;35382;51.484;11.476;2023-05-07T01:05:47;9.67;87.33
49489;SHT31;35382;51.484;11.476;2023-05-07T01:07:29;9.54;87.60
49489;SHT31;35382;51.484;11.476;2023-05-07T01:09:11;9.66;87.20
49489;SHT31;35382;51.484;11.476;2023-05-07T01:10:52;9.69;87.15
49489;SHT31;35382;51.484;11.476;2023-05-07T01:12:35;9.64;87.37
49489;SHT31;35382;51.484;11.476;2023-05-07T01:14:18;9.69;87.26
49489;SHT31;35382;51.484;11.476;2023-05-07T01:15:59;9.62;87.74
49489;SHT31;35382;51.484;11.476;2023-05-07T01:17:42;9.49;87.84
49489;SHT31;35382;51.484;11.476;2023-05-07T01:19:29;9.59;87.56
49489;SHT31;35382;51.484;11.476;2023-05-07T01:21:11;9.51;87.52
49489;SHT31;35382;51.484;11.476;2023-05-07T01:22:53;9.54;87.50
49489;SHT31;35382;51.484;11.476;2023-05-07T01:24:35;9.50;87.69
49489;SHT31;35382;51.484;11.476;2023-05-07T01:26:17;9.51;87.68
49489;SHT31;35382;51.484;11.476;2023-05-07T01:28:00;9.60;87.75
49489;SHT31;35382;51.484;11.476;2023-05-07T01:29:45;9.54;87.61
49489;SHT31;35382;51.484;11.476;2023-05-07T01:31:25;9.49;87.97
49489;SHT31;35382;51.484;11.476;2023-05-07T01:33:09;9.57;87.66
49489;SHT31;35382;51.484;11.476;2023-05-07T01:34:52;9.54;87.59
49489;SHT31;35382;51.484;11.476;2023-05-07T01:36:37;9.46;87.97
49489;SHT31;35382;51.484;11.476;2023-05-07T01:38:20;9.42;88.00
49489;SHT31;35382;51.484;11.476;2023-05-07T01:40:03;9.25;88.68
49489;SHT31;35382;51.484;11.476;2023-05-07T01:41:44;9.25;88.81
49489;SHT31;35382;51.484;11.476;2023-05-07T01:43:26;9.28;88.70
49489;SHT31;35382;51.484;11.476;2023-05-07T01:45:07;9.20;89.07
49489;SHT31;35382;51.484;11.476;2023-05-07T01:46:48;9.19;89.19
49489;SHT31;35382;51.484;11.476;2023-05-07T01:48:30;9.05;89.85
49489;SHT31;35382;51.484;11.476;2023-05-07T01:50:11;9.09;90.32
49489;SHT31;35382;51.484;11.476;2023-05-07T01:51:52;9.15;89.64
49489;SHT31;35382;51.484;11.476;2023-05-07T01:53:37;9.19;89.29
49489;SHT31;35382;51.484;11.476;2023-05-07T01:55:19;9.01;89.90
49489;SHT31;35382;51.484;11.476;2023-05-07T01:57:00;8.91;90.78
49489;SHT31;35382;51.484;11.476;2023-05-07T01:58:41;8.98;90.82
49489;SHT31;35382;51.484;11.476;2023-05-07T02:00:23;8.89;91.14
49489;SHT31;35382;51.484;11.476;2023-05-07T02:02:04;9.01;90.97
49489;SHT31;35382;51.484;11.476;2023-05-07T02:03:46;8.89;91.15
49489;SHT31;35382;51.484;11.476;2023-05-07T02:05:34;9.02;90.40
49489;SHT31;35382;51.484;11.476;2023-05-07T02:07:21;8.81;91.03
49489;SHT31;35382;51.484;11.476;2023-05-07T02:09:02;8.91;91.40
49489;SHT31;35382;51.484;11.476;2023-05-07T02:10:43;8.89;90.54
49489;SHT31;35382;51.484;11.476;2023-05-07T02:12:24;8.88;90.89
49489;SHT31;35382;51.484;11.476;2023-05-07T02:14:05;8.67;91.41
49489;SHT31;35382;51.484;11.476;2023-05-07T02:15:46;8.73;91.61
49489;SHT31;35382;51.484;11.476;2023-05-07T02:17:31;8.83;90.96
49489;SHT31;35382;51.484;11.476;2023-05-07T02:19:13;8.78;90.54
49489;SHT31;35382;51.484;11.476;2023-05-07T02:20:54;8.71;90.70
49489;SHT31;35382;51.484;11.476;2023-05-07T02:22:35;8.73;90.66
49489;SHT31;35382;51.484;11.476;2023-05-07T02:24:16;8.69;90.50
49489;SHT31;35382;51.484;11.476;2023-05-07T02:25:57;8.71;90.61
49489;SHT31;35382;51.484;11.476;2023-05-07T02:27:38;8.62;90.25
49489;SHT31;35382;51.484;11.476;2023-05-07T02:29:19;8.64;90.50
49489;SHT31;35382;51.484;11.476;2023-05-07T02:31:02;8.61;90.80
49489;SHT31;35382;51.484;11.476;2023-05-07T02:32:44;8.68;90.64
49489;SHT31;35382;51.484;11.476;2023-05-07T02:34:25;8.60;90.88
49489;SHT31;35382;51.484;11.476;2023-05-07T02:36:07;8.55;90.78
49489;SHT31;35382;51.484;11.476;2023-05-07T02:37:50;8.58;90.83
49489;SHT31;35382;51.484;11.476;2023-05-07T02:39:31;8.62;90.64
49489;SHT31;35382;51.484;11.476;2023-05-07T02:41:12;8.61;90.16
49489;SHT31;35382;51.484;11.476;2023-05-07T02:42:53;8.55;90.26
49489;SHT31;35382;51.484;11.476;2023-05-07T02:44:34;8.57;89.82
49489;SHT31;35382;51.484;11.476;2023-05-07T02:46:16;8.62;89.99
49489;SHT31;35382;51.484;11.476;2023-05-07T02:48:01;8.62;89.98
49489;SHT31;35382;51.484;11.476;2023-05-07T02:49:42;8.67;89.43
49489;SHT31;35382;51.484;11.476;2023-05-07T02:51:23;8.61;89.64
49489;SHT31;35382;51.484;11.476;2023-05-07T02:53:05;8.67;89.23
49489;SHT31;35382;51.484;11.476;2023-05-07T02:54:46;8.62;89.23
49489;SHT31;35382;51.484;11.476;2023-05-07T02:56:27;8.67;88.61
49489;SHT31;35382;51.484;11.476;2023-05-07T02:58:08;8.67;88.98
49489;SHT31;35382;51.484;11.476;2023-05-07T02:59:52;8.71;88.78
49489;SHT31;35382;51.484;11.476;2023-05-07T03:01:34;8.64;89.22
49489;SHT31;35382;51.484;11.476;2023-05-07T03:03:23;8.69;89.37
49489;SHT31;35382;51.484;11.476;2023-05-07T03:05:04;8.69;89.08
49489;SHT31;35382;51.484;11.476;2023-05-07T03:06:46;8.75;88.86
49489;SHT31;35382;51.484;11.476;2023-05-07T03:08:27;8.67;89.05
49489;SHT31;35382;51.484;11.476;2023-05-07T03:10:08;8.82;89.44
49489;SHT31;35382;51.484;11.476;2023-05-07T03:11:49;8.72;89.46
49489;SHT31;35382;51.484;11.476;2023-05-07T03:13:30;8.79;89.52
49489;SHT31;35382;51.484;11.476;2023-05-07T03:15:11;8.78;88.68
49489;SHT31;35382;51.484;11.476;2023-05-07T03:16:53;8.73;88.82
49489;SHT31;35382;51.484;11.476;2023-05-07T03:18:34;8.71;89.72
49489;SHT31;35382;51.484;11.476;2023-05-07T03:20:15;8.81;88.56
49489;SHT31;35382;51.484;11.476;2023-05-07T03:21:56;8.58;89.55
49489;SHT31;35382;51.484;11.476;2023-05-07T03:23:37;8.83;88.85
49489;SHT31;35382;51.484;11.476;2023-05-07T03:25:18;8.60;89.09
49489;SHT31;35382;51.484;11.476;2023-05-07T03:26:59;8.75;88.56
49489;SHT31;35382;51.484;11.476;2023-05-07T03:28:42;8.71;88.66
49489;SHT31;35382;51.484;11.476;2023-05-07T03:30:26;8.65;88.74
49489;SHT31;35382;51.484;11.476;2023-05-07T03:32:07;8.68;88.48
49489;SHT31;35382;51.484;11.476;2023-05-07T03:33:56;8.69;88.91
49489;SHT31;35382;51.484;11.476;2023-05-07T03:35:38;8.67;88.57
49489;SHT31;35382;51.484;11.476;2023-05-07T03:37:22;8.67;88.58
49489;SHT31;35382;51.484;11.476;2023-05-07T03:39:04;8.78;88.05
49489;SHT31;35382;51.484;11.476;2023-05-07T03:40:52;8.82;87.73
49489;SHT31;35382;51.484;11.476;2023-05-07T03:42:33;8.85;87.55
49489;SHT31;35382;51.484;11.476;2023-05-07T03:44:14;8.83;87.62
49489;SHT31;35382;51.484;11.476;2023-05-07T03:45:56;8.72;87.97
49489;SHT31;35382;51.484;11.476;2023-05-07T03:47:40;8.86;87.30
49489;SHT31;35382;51.484;11.476;2023-05-07T03:49:23;8.86;87.24
49489;SHT31;35382;51.484;11.476;2023-05-07T03:51:04;8.76;87.71
49489;SHT31;35382;51.484;11.476;2023-05-07T03:52:47;8.82;87.66
49489;SHT31;35382;51.484;11.476;2023-05-07T03:54:31;8.72;87.86
49489;SHT31;35382;51.484;11.476;2023-05-07T03:56:12;8.79;87.50
49489;SHT31;35382;51.484;11.476;2023-05-07T03:57:54;8.82;87.16
49489;SHT31;35382;51.484;11.476;2023-05-07T03:59:35;8.73;87.50
49489;SHT31;35382;51.484;11.476;2023-05-07T04:01:16;8.81;87.38
49489;SHT31;35382;51.484;11.476;2023-05-07T04:02:58;8.72;87.78
49489;SHT31;35382;51.484;11.476;2023-05-07T04:04:41;8.68;87.76
49489;SHT31;35382;51.484;11.476;2023-05-07T04:06:23;8.78;88.09
49489;SHT31;35382;51.484;11.476;2023-05-07T04:08:04;8.76;87.62
49489;SHT31;35382;51.484;11.476;2023-05-07T04:09:59;8.81;87.42
49489;SHT31;35382;51.484;11.476;2023-05-07T04:11:40;8.81;87.28
49489;SHT31;35382;51.484;11.476;2023-05-07T04:13:24;8.86;87.21
49489;SHT31;35382;51.484;11.476;2023-05-07T04:15:06;8.89;86.60
49489;SHT31;35382;51.484;11.476;2023-05-07T04:16:47;8.76;87.51
49489;SHT31;35382;51.484;11.476;2023-05-07T04:18:28;8.78;87.41
49489;SHT31;35382;51.484;11.476;2023-05-07T04:20:12;8.79;87.40
49489;SHT31;35382;51.484;11.476;2023-05-07T04:21:53;8.68;87.87
49489;SHT31;35382;51.484;11.476;2023-05-07T04:23:34;8.79;88.10
49489;SHT31;35382;51.484;11.476;2023-05-07T04:25:18;8.95;87.12
49489;SHT31;35382;51.484;11.476;2023-05-07T04:27:00;8.96;86.49
49489;SHT31;35382;51.484;11.476;2023-05-07T04:28:41;8.86;87.42
49489;SHT31;35382;51.484;11.476;2023-05-07T04:30:22;8.99;86.66
49489;SHT31;35382;51.484;11.476;2023-05-07T04:32:03;9.08;85.99
49489;SHT31;35382;51.484;11.476;2023-05-07T04:33:44;8.98;86.13
49489;SHT31;35382;51.484;11.476;2023-05-07T04:35:28;8.92;86.63
49489;SHT31;35382;51.484;11.476;2023-05-07T04:37:09;8.86;86.93
49489;SHT31;35382;51.484;11.476;2023-05-07T04:38:50;8.85;86.63
49489;SHT31;35382;51.484;11.476;2023-05-07T04:40:32;8.91;86.61
49489;SHT31;35382;51.484;11.476;2023-05-07T04:42:16;8.89;86.94
49489;SHT31;35382;51.484;11.476;2023-05-07T04:43:57;8.93;86.82
49489;SHT31;35382;51.484;11.476;2023-05-07T04:45:40;8.88;86.49
49489;SHT31;35382;51.484;11.476;2023-05-07T04:47:22;8.86;87.00
49489;SHT31;35382;51.484;11.476;2023-05-07T04:49:03;8.96;86.53
49489;SHT31;35382;51.484;11.476;2023-05-07T04:50:46;8.91;87.25
49489;SHT31;35382;51.484;11.476;2023-05-07T04:52:28;8.92;86.61
49489;SHT31;35382;51.484;11.476;2023-05-07T04:54:09;8.93;86.74
49489;SHT31;35382;51.484;11.476;2023-05-07T04:55:57;8.95;86.48
49489;SHT31;35382;51.484;11.476;2023-05-07T04:57:41;8.83;87.34
49489;SHT31;35382;51.484;11.476;2023-05-07T04:59:24;8.92;86.89
49489;SHT31;35382;51.484;11.476;2023-05-07T05:01:05;8.85;86.95
49489;SHT31;35382;51.484;11.476;2023-05-07T05:02:46;8.82;87.35
49489;SHT31;35382;51.484;11.476;2023-05-07T05:04:31;8.98;86.75
49489;SHT31;35382;51.484;11.476;2023-05-07T05:06:12;8.88;87.11
49489;SHT31;35382;51.484;11.476;2023-05-07T05:07:54;8.85;87.36
49489;SHT31;35382;51.484;11.476;2023-05-07T05:09:35;8.86;87.25
49489;SHT31;35382;51.484;11.476;2023-05-07T05:11:16;8.96;87.27
49489;SHT31;35382;51.484;11.476;2023-05-07T05:12:57;9.04;86.94
49489;SHT31;35382;51.484;11.476;2023-05-07T05:14:39;9.04;86.83
49489;SHT31;35382;51.484;11.476;2023-05-07T05:16:22;8.95;87.30
49489;SHT31;35382;51.484;11.476;2023-05-07T05:18:03;8.92;87.47
49489;SHT31;35382;51.484;11.476;2023-05-07T05:19:45;8.81;88.16
49489;SHT31;35382;51.484;11.476;2023-05-07T05:21:26;8.89;87.15
49489;SHT31;35382;51.484;11.476;2023-05-07T05:23:12;8.91;87.40
49489;SHT31;35382;51.484;11.476;2023-05-07T05:24:53;8.95;86.94
49489;SHT31;35382;51.484;11.476;2023-05-07T05:26:36;8.86;87.12
49489;SHT31;35382;51.484;11.476;2023-05-07T05:28:17;8.93;86.48
49489;SHT31;35382;51.484;11.476;2023-05-07T05:29:58;8.89;87.00
49489;SHT31;35382;51.484;11.476;2023-05-07T05:31:39;8.95;87.12
49489;SHT31;35382;51.484;11.476;2023-05-07T05:33:23;8.92;87.46
49489;SHT31;35382;51.484;11.476;2023-05-07T05:35:05;8.96;87.10
49489;SHT31;35382;51.484;11.476;2023-05-07T05:36:48;9.08;86.67
49489;SHT31;35382;51.484;11.476;2023-05-07T05:38:30;9.09;86.68
49489;SHT31;35382;51.484;11.476;2023-05-07T05:40:11;9.06;86.00
49489;SHT31;35382;51.484;11.476;2023-05-07T05:41:52;9.09;85.92
49489;SHT31;35382;51.484;11.476;2023-05-07T05:43:35;9.11;86.15
49489;SHT31;35382;51.484;11.476;2023-05-07T05:45:15;9.05;86.74
49489;SHT31;35382;51.484;11.476;2023-05-07T05:46:58;9.19;86.06
49489;SHT31;35382;51.484;11.476;2023-05-07T05:48:40;9.18;85.77
49489;SHT31;35382;51.484;11.476;2023-05-07T05:50:25;9.18;85.96
49489;SHT31;35382;51.484;11.476;2023-05-07T05:52:07;9.19;85.82
49489;SHT31;35382;51.484;11.476;2023-05-07T05:53:48;9.18;85.92
49489;SHT31;35382;51.484;11.476;2023-05-07T05:55:33;9.14;85.85
49489;SHT31;35382;51.484;11.476;2023-05-07T05:57:14;9.19;86.48
49489;SHT31;35382;51.484;11.476;2023-05-07T05:58:55;9.22;85.90
49489;SHT31;35382;51.484;11.476;2023-05-07T06:00:36;9.16;86.53
49489;SHT31;35382;51.484;11.476;2023-05-07T06:02:20;9.28;85.64
49489;SHT31;35382;51.484;11.476;2023-05-07T06:04:01;9.42;85.61
49489;SHT31;35382;51.484;11.476;2023-05-07T06:05:42;9.50;85.13
49489;SHT31;35382;51.484;11.476;2023-05-07T06:07:23;9.60;84.90
49489;SHT31;35382;51.484;11.476;2023-05-07T06:09:06;9.57;84.86
49489;SHT31;35382;51.484;11.476;2023-05-07T06:10:55;9.67;84.46
49489;SHT31;35382;51.484;11.476;2023-05-07T06:12:36;9.64;84.84
49489;SHT31;35382;51.484;11.476;2023-05-07T06:14:17;9.70;84.53
49489;SHT31;35382;51.484;11.476;2023-05-07T06:15:59;9.76;84.11
49489;SHT31;35382;51.484;11.476;2023-05-07T06:17:40;9.87;83.34
49489;SHT31;35382;51.484;11.476;2023-05-07T06:19:21;9.73;83.57
49489;SHT31;35382;51.484;11.476;2023-05-07T06:21:05;9.73;83.46
49489;SHT31;35382;51.484;11.476;2023-05-07T06:22:48;9.62;84.28
49489;SHT31;35382;51.484;11.476;2023-05-07T06:24:30;9.64;83.72
49489;SHT31;35382;51.484;11.476;2023-05-07T06:26:11;9.66;83.81
49489;SHT31;35382;51.484;11.476;2023-05-07T06:27:56;9.77;83.74
49489;SHT31;35382;51.484;11.476;2023-05-07T06:29:39;9.82;84.04
49489;SHT31;35382;51.484;11.476;2023-05-07T06:31:30;9.84;83.72
49489;SHT31;35382;51.484;11.476;2023-05-07T06:33:17;9.80;83.89
49489;SHT31;35382;51.484;11.476;2023-05-07T06:34:58;9.91;82.98
49489;SHT31;35382;51.484;11.476;2023-05-07T06:36:39;9.73;83.42
49489;SHT31;35382;51.484;11.476;2023-05-07T06:38:28;9.77;83.91
49489;SHT31;35382;51.484;11.476;2023-05-07T06:40:10;9.89;83.86
49489;SHT31;35382;51.484;11.476;2023-05-07T06:41:53;9.91;83.92
49489;SHT31;35382;51.484;11.476;2023-05-07T06:43:45;9.90;83.89
49489;SHT31;35382;51.484;11.476;2023-05-07T06:45:39;9.98;83.61
49489;SHT31;35382;51.484;11.476;2023-05-07T06:47:22;10.00;83.56
49489;SHT31;35382;51.484;11.476;2023-05-07T06:49:07;10.00;83.09
49489;SHT31;35382;51.484;11.476;2023-05-07T06:50:48;10.04;83.22
49489;SHT31;35382;51.484;11.476;2023-05-07T06:52:29;10.16;82.87
49489;SHT31;35382;51.484;11.476;2023-05-07T06:54:10;10.08;82.68
49489;SHT31;35382;51.484;11.476;2023-05-07T06:55:55;10.10;82.61
49489;SHT31;35382;51.484;11.476;2023-05-07T06:57:36;10.17;82.61
49489;SHT31;35382;51.484;11.476;2023-05-07T06:59:17;10.25;82.79
49489;SHT31;35382;51.484;11.476;2023-05-07T07:00:58;10.21;81.86
49489;SHT31;35382;51.484;11.476;2023-05-07T07:02:39;10.06;82.34
49489;SHT31;35382;51.484;11.476;2023-05-07T07:04:20;10.13;82.52
49489;SHT31;35382;51.484;11.476;2023-05-07T07:06:12;10.24;81.45
49489;SHT31;35382;51.484;11.476;2023-05-07T07:07:55;10.25;81.17
49489;SHT31;35382;51.484;11.476;2023-05-07T07:09:36;10.07;82.25
49489;SHT31;35382;51.484;11.476;2023-05-07T07:11:19;9.96;82.10
49489;SHT31;35382;51.484;11.476;2023-05-07T07:13:03;10.10;82.20
49489;SHT31;35382;51.484;11.476;2023-05-07T07:14:44;10.22;81.78
49489;SHT31;35382;51.484;11.476;2023-05-07T07:16:26;10.16;82.23
49489;SHT31;35382;51.484;11.476;2023-05-07T07:18:07;10.27;81.86
49489;SHT31;35382;51.484;11.476;2023-05-07T07:19:49;10.22;80.27
49489;SHT31;35382;51.484;11.476;2023-05-07T07:21:30;10.22;80.48
49489;SHT31;35382;51.484;11.476;2023-05-07T07:23:12;10.21;81.37
49489;SHT31;35382;51.484;11.476;2023-05-07T07:24:53;10.11;80.87
49489;SHT31;35382;51.484;11.476;2023-05-07T07:26:34;10.21;81.62
49489;SHT31;35382;51.484;11.476;2023-05-07T07:28:21;10.06;80.77
49489;SHT31;35382;51.484;11.476;2023-05-07T07:30:04;10.04;81.78
49489;SHT31;35382;51.484;11.476;2023-05-07T07:31:48;10.16;81.39
49489;SHT31;35382;51.484;11.476;2023-05-07T07:33:31;10.16;81.26
49489;SHT31;35382;51.484;11.476;2023-05-07T07:35:12;10.16;81.27
49489;SHT31;35382;51.484;11.476;2023-05-07T07:36:54;10.14;81.55
49489;SHT31;35382;51.484;11.476;2023-05-07T07:38:35;10.01;81.36
49489;SHT31;35382;51.484;11.476;2023-05-07T07:40:17;9.96;81.98
49489;SHT31;35382;51.484;11.476;2023-05-07T07:42:00;9.98;82.11
49489;SHT31;35382;51.484;11.476;2023-05-07T07:43:43;10.01;82.36
49489;SHT31;35382;51.484;11.476;2023-05-07T07:45:24;10.00;81.65
49489;SHT31;35382;51.484;11.476;2023-05-07T07:47:06;9.97;82.09
49489;SHT31;35382;51.484;11.476;2023-05-07T07:48:47;9.96;81.84
49489;SHT31;35382;51.484;11.476;2023-05-07T07:50:29;9.94;82.10
49489;SHT31;35382;51.484;11.476;2023-05-07T07:52:10;9.84;82.44
49489;SHT31;35382;51.484;11.476;2023-05-07T07:53:51;9.80;82.80
49489;SHT31;35382;51.484;11.476;2023-05-07T07:55:38;9.79;83.18
49489;SHT31;35382;51.484;11.476;2023-05-07T07:57:19;9.96;82.52
49489;SHT31;35382;51.484;11.476;2023-05-07T07:59:01;10.03;82.56
49489;SHT31;35382;51.484;11.476;2023-05-07T08:00:42;10.20;81.37
49489;SHT31;35382;51.484;11.476;2023-05-07T08:02:23;10.18;81.26
49489;SHT31;35382;51.484;11.476;2023-05-07T08:04:07;10.13;81.43
49489;SHT31;35382;51.484;11.476;2023-05-07T08:05:51;10.01;82.53
49489;SHT31;35382;51.484;11.476;2023-05-07T08:07:35;9.87;81.56
49489;SHT31;35382;51.484;11.476;2023-05-07T08:09:16;9.73;82.25
49489;SHT31;35382;51.484;11.476;2023-05-07T08:11:03;9.67;83.11
49489;SHT31;35382;51.484;11.476;2023-05-07T08:12:50;9.70;82.26
49489;SHT31;35382;51.484;11.476;2023-05-07T08:14:31;9.80;82.47
49489;SHT31;35382;51.484;11.476;2023-05-07T08:16:12;9.82;81.71
49489;SHT31;35382;51.484;11.476;2023-05-07T08:17:53;9.77;82.01
49489;SHT31;35382;51.484;11.476;2023-05-07T08:19:34;9.83;81.77
49489;SHT31;35382;51.484;11.476;2023-05-07T08:21:17;9.82;81.51
49489;SHT31;35382;51.484;11.476;2023-05-07T08:22:58;9.91;81.07
49489;SHT31;35382;51.484;11.476;2023-05-07T08:24:41;9.91;81.19
49489;SHT31;35382;51.484;11.476;2023-05-07T08:26:22;10.00;80.90
49489;SHT31;35382;51.484;11.476;2023-05-07T08:28:03;9.86;80.98
49489;SHT31;35382;51.484;11.476;2023-05-07T08:29:47;9.94;80.72
49489;SHT31;35382;51.484;11.476;2023-05-07T08:31:31;10.00;80.88
49489;SHT31;35382;51.484;11.476;2023-05-07T08:33:12;10.06;80.84
49489;SHT31;35382;51.484;11.476;2023-05-07T08:34:53;10.01;80.83
49489;SHT31;35382;51.484;11.476;2023-05-07T08:36:34;9.98;80.78
49489;SHT31;35382;51.484;11.476;2023-05-07T08:38:15;10.07;80.52
49489;SHT31;35382;51.484;11.476;2023-05-07T08:39:56;9.87;80.54
49489;SHT31;35382;51.484;11.476;2023-05-07T08:41:44;9.82;81.13
49489;SHT31;35382;51.484;11.476;2023-05-07T08:43:26;9.84;81.35
49489;SHT31;35382;51.484;11.476;2023-05-07T08:45:10;9.91;81.39
49489;SHT31;35382;51.484;11.476;2023-05-07T08:46:56;9.98;80.86
49489;SHT31;35382;51.484;11.476;2023-05-07T08:48:38;9.93;80.79
49489;SHT31;35382;51.484;11.476;2023-05-07T08:50:24;9.89;80.98
49489;SHT31;35382;51.484;11.476;2023-05-07T08:52:06;9.94;81.69
49489;SHT31;35382;51.484;11.476;2023-05-07T08:53:52;9.90;81.13
49489;SHT31;35382;51.484;11.476;2023-05-07T08:55:39;9.93;81.18
49489;SHT31;35382;51.484;11.476;2023-05-07T08:57:20;9.97;80.83
49489;SHT31;35382;51.484;11.476;2023-05-07T08:59:02;9.90;80.62
49489;SHT31;35382;51.484;11.476;2023-05-07T09:00:46;9.86;80.73
49489;SHT31;35382;51.484;11.476;2023-05-07T09:02:27;9.76;81.12
49489;SHT31;35382;51.484;11.476;2023-05-07T09:04:09;9.84;80.76
49489;SHT31;35382;51.484;11.476;2023-05-07T09:05:51;9.90;80.55
49489;SHT31;35382;51.484;11.476;2023-05-07T09:07:34;9.89;80.68
49489;SHT31;35382;51.484;11.476;2023-05-07T09:09:17;10.07;80.32
49489;SHT31;35382;51.484;11.476;2023-05-07T09:10:59;10.18;79.47
49489;SHT31;35382;51.484;11.476;2023-05-07T09:12:40;10.38;79.65
49489;SHT31;35382;51.484;11.476;2023-05-07T09:14:24;10.38;79.17
49489;SHT31;35382;51.484;11.476;2023-05-07T09:16:12;10.44;79.37
49489;SHT31;35382;51.484;11.476;2023-05-07T09:17:59;10.50;79.13
49489;SHT31;35382;51.484;11.476;2023-05-07T09:19:46;10.38;79.18
49489;SHT31;35382;51.484;11.476;2023-05-07T09:21:29;10.51;78.44
49489;SHT31;35382;51.484;11.476;2023-05-07T09:23:13;10.51;78.58
49489;SHT31;35382;51.484;11.476;2023-05-07T09:24:54;10.51;78.49
49489;SHT31;35382;51.484;11.476;2023-05-07T09:26:39;10.51;78.61
49489;SHT31;35382;51.484;11.476;2023-05-07T09:28:21;10.45;78.03
49489;SHT31;35382;51.484;11.476;2023-05-07T09:30:04;10.48;78.43
49489;SHT31;35382;51.484;11.476;2023-05-07T09:31:46;10.55;78.47
49489;SHT31;35382;51.484;11.476;2023-05-07T09:33:29;10.50;78.03
49489;SHT31;35382;51.484;11.476;2023-05-07T09:35:16;10.41;78.61
49489;SHT31;35382;51.484;11.476;2023-05-07T09:37:06;10.51;78.19
49489;SHT31;35382;51.484;11.476;2023-05-07T09:38:48;10.50;77.10
49489;SHT31;35382;51.484;11.476;2023-05-07T09:40:31;10.57;77.58
49489;SHT31;35382;51.484;11.476;2023-05-07T09:42:22;10.57;77.39
49489;SHT31;35382;51.484;11.476;2023-05-07T09:44:04;10.57;77.48
49489;SHT31;35382;51.484;11.476;2023-05-07T09:45:52;10.41;78.08
49489;SHT31;35382;51.484;11.476;2023-05-07T09:47:36;10.42;78.22
49489;SHT31;35382;51.484;11.476;2023-05-07T09:49:23;10.42;77.48
49489;SHT31;35382;51.484;11.476;2023-05-07T09:51:39;10.57;77.27
49489;SHT31;35382;51.484;11.476;2023-05-07T09:53:22;10.78;76.62
49489;SHT31;35382;51.484;11.476;2023-05-07T09:55:05;10.78;76.39
49489;SHT31;35382;51.484;11.476;2023-05-07T09:56:51;10.89;76.09
49489;SHT31;35382;51.484;11.476;2023-05-07T09:58:36;10.72;76.51
49489;SHT31;35382;51.484;11.476;2023-05-07T10:00:21;10.72;76.89
49489;SHT31;35382;51.484;11.476;2023-05-07T10:02:15;10.85;76.60
49489;SHT31;35382;51.484;11.476;2023-05-07T10:04:02;10.85;75.84
49489;SHT31;35382;51.484;11.476;2023-05-07T10:05:50;10.84;75.88
49489;SHT31;35382;51.484;11.476;2023-05-07T10:07:36;10.82;76.52
49489;SHT31;35382;51.484;11.476;2023-05-07T10:09:21;10.81;76.16
49489;SHT31;35382;51.484;11.476;2023-05-07T10:11:04;10.91;75.70
49489;SHT31;35382;51.484;11.476;2023-05-07T10:12:46;11.15;74.84
49489;SHT31;35382;51.484;11.476;2023-05-07T10:14:34;11.35;74.67
49489;SHT31;35382;51.484;11.476;2023-05-07T10:16:15;11.43;74.20
49489;SHT31;35382;51.484;11.476;2023-05-07T10:18:03;11.22;74.58
49489;SHT31;35382;51.484;11.476;2023-05-07T10:19:44;11.29;74.74
49489;SHT31;35382;51.484;11.476;2023-05-07T10:21:27;11.05;74.59
49489;SHT31;35382;51.484;11.476;2023-05-07T10:23:19;11.23;75.62
49489;SHT31;35382;51.484;11.476;2023-05-07T10:25:06;11.19;74.48
49489;SHT31;35382;51.484;11.476;2023-05-07T10:26:51;11.33;74.53
49489;SHT31;35382;51.484;11.476;2023-05-07T10:28:38;11.46;74.31
49489;SHT31;35382;51.484;11.476;2023-05-07T10:32:30;11.20;74.72
49489;SHT31;35382;51.484;11.476;2023-05-07T10:34:21;11.28;74.16
49489;SHT31;35382;51.484;11.476;2023-05-07T10:36:05;11.33;74.60
49489;SHT31;35382;51.484;11.476;2023-05-07T10:37:47;11.16;74.51
49489;SHT31;35382;51.484;11.476;2023-05-07T10:39:29;11.11;75.53
49489;SHT31;35382;51.484;11.476;2023-05-07T10:41:11;11.18;75.52
49489;SHT31;35382;51.484;11.476;2023-05-07T10:42:57;11.26;75.22
49489;SHT31;35382;51.484;11.476;2023-05-07T10:44:39;11.16;75.19
49489;SHT31;35382;51.484;11.476;2023-05-07T10:46:28;10.99;75.38
49489;SHT31;35382;51.484;11.476;2023-05-07T10:48:18;10.92;75.84
49489;SHT31;35382;51.484;11.476;2023-05-07T10:54:21;11.25;74.74